Time;durP1;ratioP1;P1;durP2;ratioP2;P2;SDS_P1;SDS_P2;PMS_P1;PMS_P2;Temp;Humidity;BMP_temperature;BMP_pressure;BME280_temperature;BME280_humidity;BME280_pressure;Samples;Min_cycle;Max_cycle;Signal;HPM_P1;HPM_P2
2022/01/22 00:00:32;;;;;;;4.25;2.72;;;7.70;99.90;;;;;;4993171;28;20033;-75
2022/01/22 00:02:58;;;;;;;3.88;2.45;;;7.80;99.90;;;;;;5008907;28;20034;-75
2022/01/22 00:05:23;;;;;;;6.28;2.70;;;7.90;99.90;;;;;;4990549;28;20088;-75
2022/01/22 00:07:50;;;;;;;3.63;2.53;;;7.90;99.90;;;;;;4991406;28;20427;-76
2022/01/22 00:10:19;;;;;;;2.58;2.20;;;7.90;99.90;;;;;;4976685;28;20038;-76
2022/01/22 00:15:17;;;;;;;2.72;2.45;;;7.90;99.90;;;;;;5014118;28;20025;-76
2022/01/22 00:17:44;;;;;;;6.43;2.28;;;8.00;99.90;;;;;;5013451;28;20375;-75
2022/01/22 00:20:11;;;;;;;3.15;2.33;;;7.90;99.90;;;;;;4995865;28;20037;-76
2022/01/22 00:22:37;;;;;;;2.60;2.13;;;7.90;99.90;;;;;;5013219;28;20100;-75
2022/01/22 00:25:08;;;;;;;4.90;2.50;;;7.90;99.90;;;;;;4990430;28;20334;-75
2022/01/22 00:27:35;;;;;;;4.47;2.42;;;7.80;99.90;;;;;;4993578;28;20624;-76
2022/01/22 00:30:01;;;;;;;2.80;2.50;;;7.70;99.90;;;;;;4993543;28;20022;-76
2022/01/22 00:32:27;;;;;;;3.05;2.58;;;7.70;99.90;;;;;;4993409;28;20034;-75
2022/01/22 00:34:52;;;;;;;3.08;2.30;;;7.70;99.90;;;;;;4975857;28;20526;-77
2022/01/22 00:37:18;;;;;;;3.13;2.40;;;7.70;99.90;;;;;;4976047;28;20121;-75
2022/01/22 00:39:44;;;;;;;8.60;2.90;;;7.70;99.90;;;;;;4992705;28;20028;-76
2022/01/22 00:42:13;;;;;;;5.28;2.80;;;7.70;99.90;;;;;;4992778;28;20172;-75
2022/01/22 00:44:39;;;;;;;3.00;2.45;;;7.80;99.90;;;;;;4993472;28;20122;-75
2022/01/22 00:47:05;;;;;;;5.13;2.50;;;7.70;99.90;;;;;;4993280;28;20491;-76
2022/01/22 00:49:31;;;;;;;3.92;2.42;;;7.70;99.90;;;;;;4992592;28;20034;-76
2022/01/22 00:51:58;;;;;;;3.50;2.55;;;7.80;99.90;;;;;;4992930;28;20058;-76
2022/01/22 00:54:24;;;;;;;3.90;2.60;;;7.80;99.90;;;;;;4992778;28;20066;-76
2022/01/22 00:56:49;;;;;;;3.92;2.40;;;8.00;99.90;;;;;;4992828;28;20037;-75
2022/01/22 00:59:15;;;;;;;4.40;2.42;;;7.90;99.90;;;;;;4992928;28;20038;-76
2022/01/22 01:01:41;;;;;;;4.05;2.42;;;7.80;99.90;;;;;;4975613;28;20049;-76
2022/01/22 01:04:09;;;;;;;4.05;2.20;;;7.80;99.90;;;;;;4992402;28;20034;-76
2022/01/22 01:06:35;;;;;;;3.63;2.35;;;7.70;99.90;;;;;;4993082;28;20416;-75
2022/01/22 01:09:04;;;;;;;4.63;2.25;;;7.80;99.90;;;;;;4975980;28;20099;-75
2022/01/22 01:11:32;;;;;;;6.55;2.20;;;7.80;99.90;;;;;;4992697;28;20031;-75
2022/01/22 01:14:01;;;;;;;;;;;7.80;99.90;;;;;;4993277;28;20046;-75
2022/01/22 01:16:55;;;;;;;3.75;2.30;;;7.80;99.90;;;;;;4975427;28;19909;-75
2022/01/22 01:33:12;;;;;;;3.97;2.35;;;7.70;99.90;;;;;;4992531;28;20073;-74
2022/01/22 01:35:39;;;;;;;4.43;2.58;;;7.70;99.90;;;;;;4974682;28;20401;-75
2022/01/22 01:38:06;;;;;;;3.40;2.50;;;7.70;99.90;;;;;;4994598;28;20038;-75
2022/01/22 01:40:34;;;;;;;5.97;3.22;;;7.70;99.90;;;;;;5011768;28;20470;-75
2022/01/22 01:45:28;;;;;;;5.38;2.72;;;7.80;99.90;;;;;;4999407;28;20030;-75
2022/01/22 01:48:00;;;;;;;3.53;3.05;;;7.80;99.90;;;;;;4992352;28;20031;-75
2022/01/22 01:50:27;;;;;;;3.50;2.50;;;7.70;99.90;;;;;;4992087;28;20093;-75
2022/01/22 01:53:26;;;;;;;3.40;2.67;;;7.60;99.90;;;;;;5008374;28;20030;-76
2022/01/22 01:58:29;;;;;;;2.53;1.90;;;7.70;99.90;;;;;;5011699;28;20054;-75
2022/01/22 02:01:00;;;;;;;4.15;2.65;;;7.70;99.90;;;;;;4994044;28;20451;-76
2022/01/22 02:03:26;;;;;;;3.38;2.55;;;7.70;99.90;;;;;;5011538;28;20057;-76
2022/01/22 02:05:52;;;;;;;4.65;3.00;;;7.70;99.90;;;;;;4994035;28;20125;-76
2022/01/22 02:08:19;;;;;;;3.78;2.63;;;7.80;99.90;;;;;;5011130;28;20105;-76
2022/01/22 02:10:54;;;;;;;5.95;2.90;;;7.70;99.90;;;;;;5011366;28;20480;-76
2022/01/22 02:23:33;;;;;;;3.10;2.15;;;7.70;99.90;;;;;;5011460;28;20040;-76
2022/01/22 02:24:41;;;;;;;2.70;2.08;;;7.70;99.90;;;;;;5008397;28;20041;-74
2022/01/22 02:27:07;;;;;;;3.25;2.63;;;7.60;99.90;;;;;;4991478;28;20034;-75
2022/01/22 02:29:33;;;;;;;4.03;2.25;;;7.70;99.90;;;;;;4991519;28;20049;-75
2022/01/22 02:34:53;;;;;;;4.07;2.17;;;7.80;99.90;;;;;;4990841;28;20495;-76
2022/01/22 02:37:21;;;;;;;3.65;2.42;;;7.80;99.90;;;;;;4971994;28;20050;-76
2022/01/22 02:40:05;;;;;;;3.53;2.38;;;7.80;99.90;;;;;;4971863;28;20018;-75
2022/01/22 02:42:35;;;;;;;3.60;2.38;;;7.80;99.90;;;;;;4955554;28;20404;-75
2022/01/22 02:45:07;;;;;;;3.00;2.20;;;8.00;99.90;;;;;;4958370;28;20357;-75
2022/01/22 02:47:32;;;;;;;4.35;2.85;;;7.90;99.90;;;;;;4991195;28;20046;-76
2022/01/22 02:49:58;;;;;;;4.22;2.80;;;7.80;99.90;;;;;;4991176;28;20042;-76
2022/01/22 02:52:24;;;;;;;8.25;3.40;;;7.70;99.90;;;;;;4991041;28;20389;-76
2022/01/22 02:54:50;;;;;;;4.65;2.90;;;7.80;99.90;;;;;;4990782;28;20022;-76
2022/01/22 02:57:18;;;;;;;6.03;2.80;;;7.80;99.90;;;;;;4991366;28;20467;-76
2022/01/22 02:59:46;;;;;;;;;;;7.80;99.90;;;;;;4991094;28;20035;-75
2022/01/22 03:02:22;;;;;;;;;;;;;;;;;;;;;
2022/01/22 03:04:51;;;;;;;4.57;3.28;;;7.80;99.90;;;;;;4990740;28;20040;-76
2022/01/22 03:07:17;;;;;;;3.85;2.45;;;7.70;99.90;;;;;;4973534;28;20034;-76
2022/01/22 03:09:46;;;;;;;8.80;4.35;;;7.80;99.90;;;;;;4990698;28;20511;-76
2022/01/22 03:12:46;;;;;;;5.10;3.58;;;7.80;99.90;;;;;;4974192;28;20052;-76
2022/01/22 03:15:35;;;;;;;6.22;3.72;;;7.80;99.90;;;;;;4989652;28;20049;-76
2022/01/22 03:18:10;;;;;;;7.80;3.83;;;7.80;99.90;;;;;;4973631;28;20053;-76
2022/01/22 03:29:02;;;;;;;5.45;3.15;;;8.00;99.90;;;;;;5010443;28;20068;-75
2022/01/22 03:31:27;;;;;;;7.10;3.25;;;7.90;99.90;;;;;;5010426;28;20034;-76
2022/01/22 03:33:53;;;;;;;4.95;3.20;;;7.90;99.90;;;;;;5010368;28;20049;-75
2022/01/22 03:36:19;;;;;;;6.32;3.53;;;7.80;99.90;;;;;;4992947;28;20026;-75
2022/01/22 03:38:46;;;;;;;5.47;3.15;;;7.90;99.90;;;;;;5009783;28;20034;-75
2022/01/22 03:41:12;;;;;;;5.22;3.28;;;7.90;99.90;;;;;;4993023;28;20040;-76
2022/01/22 03:43:38;;;;;;;5.38;3.28;;;8.00;99.90;;;;;;4995290;28;20034;-76
2022/01/22 03:46:04;;;;;;;6.70;3.53;;;7.90;99.90;;;;;;5013665;28;20061;-75
2022/01/22 03:48:30;;;;;;;6.05;3.17;;;8.00;99.90;;;;;;5014374;28;20030;-75
2022/01/22 03:50:56;;;;;;;4.85;3.55;;;8.00;99.90;;;;;;5013987;28;20095;-75
2022/01/22 03:53:21;;;;;;;5.50;3.38;;;8.10;99.90;;;;;;5013827;28;20118;-76
2022/01/22 03:56:02;;;;;;;4.97;3.38;;;8.10;99.90;;;;;;4996150;28;20034;-76
2022/01/22 03:58:29;;;;;;;4.70;3.42;;;8.00;99.90;;;;;;5013589;28;20451;-76
2022/01/22 04:01:15;;;;;;;5.30;3.40;;;8.00;99.90;;;;;;4996035;28;20036;-76
2022/01/22 04:03:44;;;;;;;7.20;3.30;;;8.10;99.90;;;;;;5013546;28;20270;-76
2022/01/22 04:06:54;;;;;;;6.88;3.13;;;8.20;99.90;;;;;;5013642;28;20076;-76
2022/01/22 04:09:13;;;;;;;5.15;2.95;;;8.10;99.90;;;;;;5010880;28;20038;-76
2022/01/22 04:11:42;;;;;;;5.57;2.88;;;8.20;99.90;;;;;;4996103;28;20041;-77
2022/01/22 04:14:16;;;;;;;6.00;3.50;;;8.20;99.90;;;;;;5013505;28;20038;-76
2022/01/22 04:16:55;;;;;;;5.28;3.33;;;8.10;99.90;;;;;;5006121;28;20045;-75
2022/01/22 04:24:51;;;;;;;5.68;3.10;;;8.20;99.90;;;;;;5013446;28;20036;-77
2022/01/22 04:27:22;;;;;;;5.47;3.60;;;8.40;99.90;;;;;;4996022;28;20558;-77
2022/01/22 04:29:48;;;;;;;5.35;3.17;;;8.30;99.90;;;;;;4995964;28;20033;-76
2022/01/22 04:32:13;;;;;;;4.80;3.15;;;8.20;99.90;;;;;;4995410;28;20042;-76
2022/01/22 04:34:39;;;;;;;7.57;3.78;;;8.20;99.90;;;;;;5012959;28;20046;-78
2022/01/22 04:37:05;;;;;;;5.07;3.05;;;8.30;99.90;;;;;;5013061;28;20109;-75
2022/01/22 04:39:30;;;;;;;6.28;3.55;;;8.20;99.90;;;;;;5013383;28;20030;-75
2022/01/22 04:41:57;;;;;;;6.32;3.88;;;8.30;99.90;;;;;;5012519;28;20053;-76
2022/01/22 04:44:26;;;;;;;6.18;3.85;;;8.20;99.90;;;;;;4995721;28;20037;-76
2022/01/22 04:52:38;;;;;;;6.38;2.78;;;8.30;99.90;;;;;;5013113;28;20049;-76
2022/01/22 04:55:05;;;;;;;5.93;3.28;;;8.40;99.90;;;;;;5012286;28;20040;-76
2022/01/22 04:57:34;;;;;;;7.60;3.20;;;8.40;99.90;;;;;;4995899;28;20030;-76
2022/01/22 05:00:00;;;;;;;5.10;2.70;;;8.40;99.90;;;;;;4994745;28;20096;-75
2022/01/22 05:02:25;;;;;;;6.82;3.05;;;8.50;99.90;;;;;;4994744;28;20034;-76
2022/01/22 05:04:51;;;;;;;4.88;3.08;;;8.50;99.90;;;;;;4975763;28;20027;-76
2022/01/22 05:07:20;;;;;;;5.60;3.15;;;8.50;99.90;;;;;;4993235;28;20023;-76
2022/01/22 05:09:45;;;;;;;7.53;2.90;;;8.60;99.90;;;;;;4992991;28;20019;-77
2022/01/22 05:12:11;;;;;;;5.85;2.80;;;8.60;99.90;;;;;;5005211;28;20026;-77
2022/01/22 05:14:37;;;;;;;3.70;2.40;;;8.70;99.90;;;;;;5012618;28;20109;-77
2022/01/22 05:17:20;;;;;;;6.03;3.17;;;8.60;99.90;;;;;;5012528;28;20022;-77
2022/01/22 05:24:48;;;;;;;8.55;3.15;;;8.50;99.90;;;;;;5009516;28;20060;-78
2022/01/22 05:37:48;;;;;;;8.43;4.03;;;8.70;99.90;;;;;;4992435;28;20157;-77
2022/01/22 05:40:14;;;;;;;8.23;3.92;;;8.70;99.90;;;;;;4992355;28;20117;-77
2022/01/22 05:42:40;;;;;;;8.05;3.75;;;8.70;99.90;;;;;;4992403;28;20030;-76
2022/01/22 05:45:06;;;;;;;8.77;4.30;;;8.70;99.90;;;;;;4992060;28;20047;-76
2022/01/22 05:47:32;;;;;;;7.10;3.58;;;8.60;99.90;;;;;;4991471;28;20037;-76
2022/01/22 05:50:05;;;;;;;11.57;3.88;;;8.70;99.90;;;;;;4990937;28;20034;-76
2022/01/22 05:52:39;;;;;;;8.32;4.03;;;8.80;99.90;;;;;;4974667;28;20034;-77
2022/01/22 05:55:26;;;;;;;10.57;3.60;;;8.80;99.90;;;;;;4992213;28;20407;-76
2022/01/22 06:00:36;;;;;;;8.27;3.42;;;8.90;99.90;;;;;;4991822;28;20169;-76
2022/01/22 06:03:05;;;;;;;6.30;3.75;;;8.90;99.90;;;;;;4992607;28;20109;-75
2022/01/22 06:05:30;;;;;;;8.00;3.53;;;8.90;99.90;;;;;;4991660;28;20061;-75
2022/01/22 06:07:56;;;;;;;5.60;3.83;;;9.00;99.90;;;;;;4991530;28;20480;-75
2022/01/22 06:10:27;;;;;;;9.05;3.25;;;9.00;99.90;;;;;;4974924;28;20026;-74
2022/01/22 06:15:21;;;;;;;6.03;3.08;;;9.00;99.90;;;;;;4973291;28;20069;-74
2022/01/22 06:17:47;;;;;;;8.23;3.17;;;9.00;99.90;;;;;;4981603;28;20473;-76
2022/01/22 06:20:13;;;;;;;9.10;3.72;;;9.00;99.90;;;;;;4991525;28;20121;-75
2022/01/22 06:22:40;;;;;;;6.68;3.17;;;9.00;99.90;;;;;;4991605;28;20133;-76
2022/01/22 06:25:06;;;;;;;4.40;2.53;;;9.00;99.90;;;;;;4964070;28;20038;-75
2022/01/22 06:27:32;;;;;;;6.20;2.78;;;9.00;99.90;;;;;;4990966;28;20092;-75
2022/01/22 06:29:58;;;;;;;5.38;2.92;;;9.00;99.90;;;;;;4991697;28;20129;-75
2022/01/22 06:32:23;;;;;;;5.63;2.75;;;9.00;99.90;;;;;;4991254;28;20030;-74
2022/01/22 06:34:49;;;;;;;5.55;2.60;;;9.10;99.90;;;;;;5010126;28;20117;-76
2022/01/22 06:37:14;;;;;;;3.80;2.25;;;9.10;99.90;;;;;;5010786;28;20470;-75
2022/01/22 06:42:25;;;;;;;6.18;2.10;;;9.10;99.90;;;;;;4991932;28;20045;-75
2022/01/22 06:44:51;;;;;;;4.88;2.70;;;9.00;99.90;;;;;;4978710;28;20427;-74
2022/01/22 06:47:17;;;;;;;5.35;2.70;;;9.00;99.90;;;;;;5010480;28;20026;-75
2022/01/22 06:49:42;;;;;;;6.55;2.20;;;8.90;99.90;;;;;;4993397;28;20034;-74
2022/01/22 06:52:08;;;;;;;6.38;2.33;;;8.90;99.90;;;;;;5010436;28;20040;-75
2022/01/22 06:54:33;;;;;;;3.17;2.15;;;8.80;99.90;;;;;;5010692;28;20048;-75
2022/01/22 06:56:59;;;;;;;4.68;2.10;;;8.90;99.90;;;;;;5011572;28;20460;-76
2022/01/22 06:59:24;;;;;;;5.40;2.50;;;9.00;99.90;;;;;;5010527;28;20515;-75
2022/01/22 07:01:54;;;;;;;2.88;1.80;;;9.00;99.90;;;;;;5009815;28;20636;-74
2022/01/22 07:04:20;;;;;;;4.72;2.15;;;9.10;99.90;;;;;;5009794;28;20037;-75
2022/01/22 07:06:46;;;;;;;4.95;2.05;;;9.00;99.90;;;;;;4993138;28;20084;-75
2022/01/22 07:09:11;;;;;;;3.97;2.10;;;8.80;99.90;;;;;;4993808;28;20456;-75
2022/01/22 07:11:37;;;;;;;5.00;2.33;;;8.90;99.90;;;;;;5010678;28;20134;-75
2022/01/22 07:14:03;;;;;;;3.28;1.65;;;8.90;99.90;;;;;;5009644;28;20068;-75
2022/01/22 07:16:29;;;;;;;5.75;2.30;;;9.00;99.90;;;;;;5010403;28;20036;-75
2022/01/22 07:18:59;;;;;;;4.15;2.38;;;9.00;99.90;;;;;;4996937;28;20120;-75
2022/01/22 07:21:27;;;;;;;4.60;2.38;;;8.90;99.90;;;;;;5015036;28;20088;-75
2022/01/22 07:24:22;;;;;;;7.90;3.42;;;9.00;99.90;;;;;;5014242;28;20030;-75
2022/01/22 07:26:38;;;;;;;10.18;3.55;;;9.00;99.90;;;;;;5005944;28;20782;-74
2022/01/22 07:29:04;;;;;;;7.72;3.42;;;9.00;99.90;;;;;;5014628;28;20042;-74
2022/01/22 07:31:29;;;;;;;6.03;3.50;;;9.10;99.90;;;;;;5014470;28;20038;-74
2022/01/22 07:33:55;;;;;;;7.70;4.15;;;8.90;99.90;;;;;;5013333;28;20034;-73
2022/01/22 07:36:21;;;;;;;9.50;3.63;;;8.80;99.90;;;;;;5014568;28;20492;-74
2022/01/22 07:38:47;;;;;;;6.85;4.13;;;8.80;99.90;;;;;;5014187;28;20061;-75
2022/01/22 07:41:12;;;;;;;8.00;3.88;;;8.80;99.90;;;;;;5014333;28;20464;-75
2022/01/22 07:43:39;;;;;;;8.57;3.95;;;8.90;99.90;;;;;;5013563;28;20034;-74
2022/01/22 07:46:08;;;;;;;6.25;3.92;;;8.70;99.90;;;;;;4996338;28;20100;-75
2022/01/22 07:48:33;;;;;;;7.75;4.18;;;8.80;99.90;;;;;;5014108;28;20142;-75
2022/01/22 07:50:59;;;;;;;7.28;4.65;;;8.80;99.90;;;;;;4997119;28;20053;-75
2022/01/22 07:53:25;;;;;;;6.72;4.13;;;8.90;99.90;;;;;;5013819;28;20096;-75
2022/01/22 07:55:51;;;;;;;8.55;4.05;;;8.80;99.90;;;;;;5013838;28;20034;-75
2022/01/22 07:58:17;;;;;;;6.72;4.03;;;8.90;99.90;;;;;;5013429;28;20120;-74
2022/01/22 08:00:42;;;;;;;9.32;4.32;;;8.80;99.90;;;;;;5013175;28;20121;-75
2022/01/22 08:03:10;;;;;;;6.10;4.03;;;8.80;99.90;;;;;;4995839;28;20030;-75
2022/01/22 08:05:36;;;;;;;6.38;3.92;;;8.80;99.90;;;;;;5013180;28;20494;-75
2022/01/22 08:08:03;;;;;;;7.45;4.50;;;8.90;99.90;;;;;;4996128;28;20038;-75
2022/01/22 08:10:29;;;;;;;7.38;4.75;;;8.80;99.90;;;;;;5013397;28;20029;-75
2022/01/22 08:12:55;;;;;;;9.57;5.10;;;8.80;99.90;;;;;;5012757;28;20045;-74
2022/01/22 08:15:21;;;;;;;7.53;4.90;;;8.80;99.90;;;;;;5013517;28;20022;-74
2022/01/22 08:17:47;;;;;;;8.25;5.20;;;9.00;99.90;;;;;;5013439;28;20041;-74
2022/01/22 08:20:16;;;;;;;9.45;5.68;;;9.00;99.90;;;;;;4995589;28;20368;-74
2022/01/22 08:22:44;;;;;;;10.73;6.32;;;8.90;99.90;;;;;;5013079;28;20041;-75
2022/01/22 08:25:10;;;;;;;13.60;5.72;;;8.80;99.90;;;;;;5013021;28;20041;-75
2022/01/22 08:30:32;;;;;;;9.00;5.07;;;9.00;99.90;;;;;;4975989;28;20466;-75
2022/01/22 08:33:20;;;;;;;11.82;5.60;;;9.00;99.90;;;;;;5011374;28;20033;-75
2022/01/22 08:35:52;;;;;;;10.13;5.00;;;8.80;99.90;;;;;;4993868;28;20163;-74
2022/01/22 08:38:22;;;;;;;9.20;5.25;;;8.80;99.90;;;;;;4995372;28;20048;-74
2022/01/22 08:40:49;;;;;;;10.07;5.40;;;8.90;99.90;;;;;;4994856;28;20026;-75
2022/01/22 08:43:14;;;;;;;8.48;5.32;;;8.90;99.90;;;;;;5012009;28;20034;-74
2022/01/22 08:45:40;;;;;;;10.82;5.88;;;9.00;99.90;;;;;;5013068;28;20048;-74
2022/01/22 08:48:06;;;;;;;8.88;5.45;;;9.00;99.90;;;;;;5013413;28;20026;-75
2022/01/22 08:50:34;;;;;;;10.55;5.38;;;9.00;99.90;;;;;;5012705;28;20077;-75
2022/01/22 08:53:00;;;;;;;11.32;6.00;;;9.00;99.90;;;;;;4995216;28;20523;-74
2022/01/22 08:55:25;;;;;;;12.02;6.57;;;9.00;99.90;;;;;;5011978;28;20046;-74
2022/01/22 08:57:51;;;;;;;11.43;6.40;;;9.10;99.90;;;;;;5012534;28;20056;-75
2022/01/22 09:00:20;;;;;;;14.60;6.40;;;9.10;99.90;;;;;;5013131;28;20037;-75
2022/01/22 09:02:47;;;;;;;12.63;6.38;;;9.10;99.90;;;;;;4995363;28;20072;-75
2022/01/22 09:05:16;;;;;;;15.70;6.22;;;9.10;99.90;;;;;;5012338;28;20149;-76
2022/01/22 09:07:43;;;;;;;10.65;5.63;;;9.10;99.90;;;;;;5012729;28;20034;-75
2022/01/22 09:10:09;;;;;;;15.80;5.63;;;9.10;99.90;;;;;;5012143;28;20053;-76
2022/01/22 09:12:34;;;;;;;12.30;5.78;;;9.10;99.90;;;;;;5011961;28;20034;-75
2022/01/22 09:15:00;;;;;;;11.90;5.93;;;9.20;99.90;;;;;;4995023;28;20447;-74
2022/01/22 09:17:25;;;;;;;9.05;4.47;;;9.10;99.90;;;;;;5012077;28;20049;-74
2022/01/22 09:19:57;;;;;;;8.95;5.10;;;9.00;99.90;;;;;;4995160;28;20042;-75
2022/01/22 09:22:22;;;;;;;8.88;4.30;;;9.10;99.90;;;;;;5012504;28;20034;-74
2022/01/22 09:24:49;;;;;;;9.15;4.57;;;8.90;99.90;;;;;;4994157;28;20056;-74
2022/01/22 09:27:16;;;;;;;10.10;4.22;;;9.10;99.90;;;;;;5012096;28;20042;-74
2022/01/22 09:29:42;;;;;;;9.20;3.57;;;9.00;99.90;;;;;;5012404;28;20026;-74
2022/01/22 09:32:07;;;;;;;8.02;3.80;;;9.00;99.90;;;;;;4994087;28;20026;-75
2022/01/22 09:34:33;;;;;;;8.15;3.17;;;9.00;99.90;;;;;;4978412;28;20042;-74
2022/01/22 09:36:58;;;;;;;7.53;3.25;;;9.10;99.90;;;;;;4975109;28;20396;-74
2022/01/22 09:39:24;;;;;;;6.53;3.22;;;9.00;99.90;;;;;;4975826;28;20031;-75
2022/01/22 09:41:50;;;;;;;7.93;3.30;;;8.90;99.90;;;;;;4992495;28;20034;-75
2022/01/22 09:44:15;;;;;;;7.72;2.95;;;8.90;99.90;;;;;;5011690;28;20387;-75
2022/01/22 09:46:43;;;;;;;5.68;2.72;;;9.00;99.90;;;;;;5011404;28;20121;-75
2022/01/22 09:49:09;;;;;;;;;;;8.90;99.90;;;;;;5012332;28;20127;-74
2022/01/22 09:51:35;;;;;;;9.60;2.50;;;8.80;99.90;;;;;;5011636;28;20051;-77
2022/01/22 09:54:01;;;;;;;5.70;2.53;;;9.00;99.90;;;;;;5011444;28;20555;-74
2022/01/22 09:56:28;;;;;;;7.10;2.63;;;9.00;99.90;;;;;;4994510;28;20036;-75
2022/01/22 09:58:53;;;;;;;9.05;2.53;;;8.90;99.90;;;;;;5011999;28;20070;-75
2022/01/22 10:01:26;;;;;;;8.38;2.25;;;9.10;99.90;;;;;;5011895;28;20057;-74
2022/01/22 10:03:55;;;;;;;5.22;2.45;;;9.10;99.90;;;;;;4993506;28;20044;-74
2022/01/22 10:06:24;;;;;;;7.65;3.20;;;9.20;99.90;;;;;;5011810;28;20522;-74
2022/01/22 10:08:56;;;;;;;7.72;2.50;;;9.20;99.90;;;;;;4993017;28;20069;-74
2022/01/22 10:11:26;;;;;;;3.78;2.05;;;9.20;99.90;;;;;;5011517;28;20488;-74
2022/01/22 10:13:59;;;;;;;7.80;2.75;;;9.40;99.90;;;;;;5011437;28;20029;-74
2022/01/22 10:16:27;;;;;;;12.35;3.67;;;9.30;99.90;;;;;;4993996;28;20039;-74
2022/01/22 10:19:10;;;;;;;8.00;2.75;;;9.20;99.90;;;;;;5010450;28;20053;-74
2022/01/22 10:21:37;;;;;;;8.05;2.88;;;9.30;99.90;;;;;;5011161;28;20025;-74
2022/01/22 10:24:49;;;;;;;8.93;3.00;;;9.30;99.90;;;;;;5011733;28;20238;-74
2022/01/22 10:27:35;;;;;;;7.25;2.78;;;9.30;99.90;;;;;;5007666;28;20050;-74
2022/01/22 10:30:04;;;;;;;9.35;3.10;;;9.30;99.90;;;;;;5010873;28;20054;-76
2022/01/22 10:33:01;;;;;;;5.50;2.75;;;9.40;99.90;;;;;;4993328;28;20375;-75
2022/01/22 10:35:23;;;;;;;4.00;2.67;;;9.50;99.90;;;;;;5009333;28;20037;-74
2022/01/22 10:37:58;;;;;;;9.40;2.65;;;9.30;99.90;;;;;;5009551;28;20128;-75
2022/01/22 10:40:29;;;;;;;8.38;2.85;;;9.40;99.90;;;;;;4991477;28;20046;-74
2022/01/22 10:43:33;;;;;;;6.90;3.08;;;9.50;99.90;;;;;;4974102;28;20468;-74
2022/01/22 10:47:03;;;;;;;4.97;2.20;;;9.50;99.90;;;;;;4991822;28;20457;-75
2022/01/22 10:49:29;;;;;;;5.82;3.25;;;9.60;99.90;;;;;;4893416;29;20033;-74
2022/01/22 10:52:04;;;;;;;3.92;2.03;;;9.50;99.90;;;;;;4990007;28;20030;-74
2022/01/22 10:54:32;;;;;;;5.65;2.10;;;9.60;99.90;;;;;;4979297;28;20470;-74
2022/01/22 10:57:14;;;;;;;;;;;9.40;99.90;;;;;;4974295;28;20034;-74
2022/01/22 10:59:52;;;;;;;6.82;2.63;;;9.20;99.90;;;;;;4991322;28;19913;-75
2022/01/22 11:02:29;;;;;;;4.03;1.83;;;9.20;99.90;;;;;;4991151;28;20031;-75
2022/01/22 11:04:55;;;;;;;4.95;1.98;;;9.40;99.90;;;;;;4983492;28;20037;-75
2022/01/22 11:07:21;;;;;;;4.40;1.88;;;9.60;99.90;;;;;;4992451;28;20049;-73
2022/01/22 11:09:48;;;;;;;3.30;2.13;;;9.60;99.90;;;;;;5010878;28;20073;-74
2022/01/22 11:12:14;;;;;;;4.93;2.13;;;9.50;99.90;;;;;;5011054;28;20096;-74
2022/01/22 11:14:41;;;;;;;3.85;2.25;;;9.50;99.90;;;;;;5010487;28;20026;-74
2022/01/22 11:17:07;;;;;;;6.43;2.45;;;9.50;99.90;;;;;;5009132;28;20022;-74
2022/01/22 11:19:34;;;;;;;6.53;2.30;;;9.30;99.90;;;;;;5010586;28;20438;-75
2022/01/22 11:22:11;;;;;;;6.27;2.70;;;9.20;99.90;;;;;;4991717;28;20042;-75
2022/01/22 11:24:48;;;;;;;6.20;2.90;;;9.40;99.90;;;;;;5010169;28;20034;-75
2022/01/22 11:27:19;;;;;;;7.05;3.53;;;9.50;99.90;;;;;;5010636;28;20443;-74
2022/01/22 11:29:53;;;;;;;7.50;4.05;;;9.50;99.90;;;;;;5010577;28;20042;-74
2022/01/22 11:32:26;;;;;;;7.28;3.70;;;9.60;99.90;;;;;;5009874;28;20034;-75
2022/01/22 11:34:55;;;;;;;11.85;4.55;;;9.50;99.90;;;;;;5008698;28;20041;-75
2022/01/22 11:37:27;;;;;;;6.95;4.63;;;9.50;99.90;;;;;;5010073;28;20329;-75
2022/01/22 11:40:19;;;;;;;9.15;4.35;;;9.50;99.90;;;;;;5009764;28;20121;-75
2022/01/22 11:42:55;;;;;;;5.93;4.10;;;9.60;99.90;;;;;;5010119;28;20365;-75
2022/01/22 11:45:51;;;;;;;9.38;4.40;;;9.50;99.90;;;;;;5010291;28;20403;-74
2022/01/22 11:48:28;;;;;;;6.38;4.07;;;9.60;99.90;;;;;;5010734;28;20112;-75
2022/01/22 11:50:56;;;;;;;6.18;3.83;;;9.60;99.90;;;;;;5009771;28;20084;-74
2022/01/22 11:53:24;;;;;;;;;;;9.40;99.90;;;;;;5009622;28;20113;-74
2022/01/22 11:56:12;;;;;;;4.47;3.22;;;9.50;99.90;;;;;;5010313;28;19984;-75
2022/01/22 11:58:56;;;;;;;8.43;3.95;;;9.50;99.90;;;;;;5010359;28;20180;-76
2022/01/22 12:01:50;;;;;;;6.68;3.08;;;9.40;99.90;;;;;;5010170;28;20371;-74
2022/01/22 12:04:18;;;;;;;4.90;2.58;;;9.50;99.90;;;;;;5011889;28;20029;-74
2022/01/22 12:07:04;;;;;;;9.13;3.35;;;9.50;99.90;;;;;;5014002;28;20029;-75
2022/01/22 12:15:07;;;;;;;9.82;3.67;;;9.60;99.90;;;;;;5013334;28;20104;-75
2022/01/22 12:17:53;;;;;;;5.68;3.10;;;9.60;99.90;;;;;;5013830;28;20044;-75
2022/01/22 12:23:14;;;;;;;5.15;3.22;;;9.70;99.90;;;;;;5013179;28;20030;-74
2022/01/22 12:25:39;;;;;;;9.20;3.22;;;9.50;99.90;;;;;;4995733;28;20053;-75
2022/01/22 12:28:09;;;;;;;8.32;4.28;;;9.70;99.90;;;;;;4995833;28;20042;-75
2022/01/22 12:30:42;;;;;;;5.43;3.38;;;9.60;99.90;;;;;;4995126;28;20353;-75
2022/01/22 12:33:13;;;;;;;5.65;3.88;;;9.60;99.90;;;;;;4993769;28;20113;-75
2022/01/22 12:35:47;;;;;;;4.97;3.42;;;9.50;99.90;;;;;;5004694;28;20033;-74
2022/01/22 12:38:33;;;;;;;8.55;3.35;;;9.60;99.90;;;;;;5013415;28;20034;-76
2022/01/22 12:44:30;;;;;;;5.07;3.22;;;9.60;99.90;;;;;;4933215;29;20036;-74
2022/01/22 12:46:58;;;;;;;5.45;2.83;;;9.50;99.90;;;;;;4981750;28;20038;-74
2022/01/22 12:49:24;;;;;;;;;;;9.60;99.90;;;;;;5013448;28;20032;-75
2022/01/22 12:51:55;;;;;;;4.93;3.08;;;9.50;99.90;;;;;;4995297;28;19909;-76
2022/01/22 12:54:40;;;;;;;5.43;2.63;;;9.60;99.90;;;;;;5013480;28;20018;-76
2022/01/22 12:57:11;;;;;;;4.30;2.85;;;9.70;99.90;;;;;;5012730;28;20069;-74
2022/01/22 13:00:17;;;;;;;5.18;1.90;;;9.70;99.90;;;;;;5012760;28;20045;-74
2022/01/22 13:02:48;;;;;;;3.63;2.20;;;9.50;99.90;;;;;;5012870;28;20109;-74
2022/01/22 13:05:16;;;;;;;4.72;2.95;;;9.60;99.90;;;;;;5012666;28;20438;-75
2022/01/22 13:07:43;;;;;;;;;;;9.60;99.90;;;;;;5012657;28;20038;-75
2022/01/22 13:10:10;;;;;;;4.20;2.80;;;9.50;99.90;;;;;;5012653;28;20500;-76
2022/01/22 13:12:37;;;;;;;4.55;2.90;;;9.60;99.90;;;;;;5012672;28;20029;-74
2022/01/22 13:15:04;;;;;;;2.95;2.22;;;9.60;99.90;;;;;;5012287;28;20630;-76
2022/01/22 13:17:33;;;;;;;5.38;3.60;;;9.60;99.90;;;;;;5011780;28;20061;-75
2022/01/22 13:19:59;;;;;;;5.00;2.80;;;9.60;99.90;;;;;;4994437;28;20160;-75
2022/01/22 13:22:36;;;;;;;4.05;2.55;;;9.70;99.90;;;;;;5012368;28;20176;-75
2022/01/22 13:25:08;;;;;;;7.35;2.70;;;9.60;99.90;;;;;;5007750;28;20039;-75
2022/01/22 13:27:36;;;;;;;4.38;2.75;;;9.50;99.90;;;;;;4992148;28;20056;-75
2022/01/22 13:30:04;;;;;;;4.60;2.63;;;9.50;99.90;;;;;;4993232;28;20046;-75
2022/01/22 13:32:55;;;;;;;3.45;2.20;;;9.50;99.90;;;;;;4975296;28;20381;-74
2022/01/22 13:38:25;;;;;;;2.83;2.00;;;9.30;99.90;;;;;;4991630;28;20070;-75
2022/01/22 13:49:05;;;;;;;4.68;2.75;;;9.70;99.90;;;;;;4960347;28;20089;-75
2022/01/22 13:51:32;;;;;;;6.72;3.05;;;9.70;99.90;;;;;;4973740;28;20027;-76
2022/01/22 13:54:00;;;;;;;3.92;2.67;;;9.70;99.90;;;;;;4991484;28;20030;-75
2022/01/22 13:56:46;;;;;;;3.47;2.45;;;9.80;99.90;;;;;;4992223;28;20625;-75
2022/01/22 13:59:20;;;;;;;3.53;2.10;;;9.80;99.90;;;;;;4974890;28;20031;-75
2022/01/22 14:01:53;;;;;;;3.28;2.40;;;9.80;99.90;;;;;;4974756;28;20472;-74
2022/01/22 14:04:19;;;;;;;2.90;2.28;;;9.60;99.90;;;;;;4974092;28;20450;-74
2022/01/22 14:06:46;;;;;;;8.98;2.90;;;9.70;99.90;;;;;;4988971;28;20022;-75
2022/01/22 14:09:18;;;;;;;3.95;2.50;;;9.80;99.90;;;;;;4973473;28;20145;-76
2022/01/22 14:12:07;;;;;;;6.20;2.55;;;9.80;99.90;;;;;;4978466;28;20030;-76
2022/01/22 14:14:57;;;;;;;4.32;2.10;;;9.90;99.90;;;;;;4974483;28;20599;-77
2022/01/22 14:17:26;;;;;;;6.50;2.40;;;9.90;99.90;;;;;;5002029;28;20065;-76
2022/01/22 14:20:04;;;;;;;5.40;2.50;;;9.80;99.90;;;;;;5011749;28;20034;-76
2022/01/22 14:22:54;;;;;;;4.75;2.58;;;9.60;99.90;;;;;;4999190;28;20046;-76
2022/01/22 14:25:19;;;;;;;3.00;2.15;;;9.80;99.90;;;;;;4992197;28;20046;-77
2022/01/22 14:28:00;;;;;;;2.55;1.60;;;9.80;99.90;;;;;;4973281;28;20058;-77
2022/01/22 14:30:32;;;;;;;3.85;1.70;;;9.70;99.90;;;;;;4975635;28;20586;-76
2022/01/22 14:32:58;;;;;;;2.30;1.42;;;9.60;99.90;;;;;;4991486;28;20125;-77
2022/01/22 14:35:24;;;;;;;3.50;1.70;;;9.40;99.90;;;;;;4991614;28;20039;-75
2022/01/22 14:37:53;;;;;;;3.25;1.70;;;9.40;99.90;;;;;;4973729;28;20030;-75
2022/01/22 14:45:59;;;;;;;4.82;1.40;;;9.50;99.90;;;;;;4991381;28;20427;-77
2022/01/22 14:48:26;;;;;;;1.90;1.50;;;9.60;99.90;;;;;;4991421;28;20022;-75
2022/01/22 14:50:55;;;;;;;6.07;1.60;;;9.30;99.90;;;;;;4991964;28;20587;-76
2022/01/22 14:53:22;;;;;;;3.97;1.52;;;9.50;99.90;;;;;;4974739;28;20419;-77
2022/01/22 14:55:49;;;;;;;6.43;1.83;;;9.50;99.90;;;;;;4991350;28;20121;-77
2022/01/22 14:58:15;;;;;;;3.67;1.77;;;9.60;99.90;;;;;;4974888;28;20051;-75
2022/01/22 15:00:44;;;;;;;4.63;2.00;;;9.60;99.90;;;;;;4961438;28;20030;-78
2022/01/22 15:03:09;;;;;;;7.00;1.92;;;9.60;99.90;;;;;;4975805;28;20452;-76